Time;durP1;ratioP1;P1;durP2;ratioP2;P2;SDS_P1;SDS_P2;PMS_P1;PMS_P2;Temp;Humidity;BMP_temperature;BMP_pressure;BME280_temperature;BME280_humidity;BME280_pressure;Samples;Min_cycle;Max_cycle;Signal;HPM_P1;HPM_P2
2021/09/02 00:00:31;;;;;;;18.35;11.23;;;15.90;99.90;;;;;;5076174;28;20078;-70
2021/09/02 00:02:57;;;;;;;16.17;9.13;;;15.80;99.90;;;;;;5074973;28;20028;-69
2021/09/02 00:05:23;;;;;;;12.15;9.35;;;15.80;99.90;;;;;;5076122;28;20407;-69
2021/09/02 00:07:50;;;;;;;12.88;10.10;;;15.70;99.90;;;;;;5076579;28;20025;-69
2021/09/02 00:10:16;;;;;;;18.10;10.43;;;15.80;99.90;;;;;;5076178;28;20024;-69
2021/09/02 00:12:42;;;;;;;13.70;8.52;;;15.60;99.90;;;;;;5075886;28;20052;-69
2021/09/02 00:15:08;;;;;;;13.38;9.73;;;15.80;99.90;;;;;;5075970;28;20028;-70
2021/09/02 00:17:34;;;;;;;12.80;9.32;;;15.60;99.90;;;;;;5076265;28;20469;-69
2021/09/02 00:20:00;;;;;;;15.60;9.38;;;15.70;99.90;;;;;;5076201;28;20029;-69
2021/09/02 00:22:27;;;;;;;13.52;10.55;;;15.60;99.90;;;;;;5074833;28;20504;-69
2021/09/02 00:24:53;;;;;;;15.20;10.27;;;15.60;99.90;;;;;;5076024;28;20029;-70
2021/09/02 00:27:19;;;;;;;13.80;10.48;;;15.60;99.90;;;;;;5075969;28;20095;-69
2021/09/02 00:29:45;;;;;;;15.60;11.13;;;15.30;99.90;;;;;;5076187;28;20021;-70
2021/09/02 00:32:11;;;;;;;34.17;11.77;;;15.50;99.90;;;;;;5075937;28;20029;-69
2021/09/02 00:34:37;;;;;;;16.75;10.32;;;15.20;99.90;;;;;;5074255;28;20059;-69
2021/09/02 00:37:03;;;;;;;16.65;9.80;;;15.20;99.90;;;;;;5076031;28;20465;-69
2021/09/02 00:39:29;;;;;;;19.33;10.85;;;15.40;99.90;;;;;;5078740;28;20078;-69
2021/09/02 00:41:55;;;;;;;17.00;11.05;;;15.10;99.90;;;;;;5079638;28;20021;-69
2021/09/02 00:44:32;;;;;;;16.95;11.68;;;15.30;99.90;;;;;;5079128;28;20020;-69
2021/09/02 00:47:00;;;;;;;15.35;10.63;;;15.20;99.90;;;;;;5079478;28;20393;-70
2021/09/02 00:49:27;;;;;;;16.70;11.10;;;15.20;99.90;;;;;;5079611;28;20039;-69
2021/09/02 00:51:52;;;;;;;14.70;9.73;;;15.20;99.90;;;;;;5079342;28;20044;-69
2021/09/02 00:54:18;;;;;;;18.88;10.80;;;14.90;99.90;;;;;;5079622;28;20423;-69
2021/09/02 00:56:44;;;;;;;13.70;10.85;;;15.00;99.90;;;;;;5077974;28;20119;-69
2021/09/02 00:59:10;;;;;;;16.75;11.00;;;15.00;99.90;;;;;;5079161;28;20056;-69
2021/09/02 01:01:36;;;;;;;15.65;10.65;;;14.90;99.90;;;;;;5079113;28;20084;-69
2021/09/02 01:04:03;;;;;;;13.63;10.48;;;14.90;99.90;;;;;;5078023;28;20464;-69
2021/09/02 01:06:29;;;;;;;16.15;10.55;;;15.10;99.90;;;;;;5077772;28;20040;-69
2021/09/02 01:08:56;;;;;;;15.43;9.55;;;15.00;99.90;;;;;;5079275;28;20021;-69
2021/09/02 01:11:23;;;;;;;12.23;10.32;;;15.10;99.90;;;;;;5078983;28;20028;-70
2021/09/02 01:13:48;;;;;;;15.40;10.40;;;15.40;99.90;;;;;;5078942;28;20031;-69
2021/09/02 01:16:14;;;;;;;17.00;10.95;;;14.80;99.90;;;;;;5077549;28;20485;-69
2021/09/02 01:18:40;;;;;;;12.20;9.32;;;15.00;99.90;;;;;;5079105;28;20013;-69
2021/09/02 01:21:06;;;;;;;16.48;10.40;;;14.90;99.90;;;;;;5078750;28;20024;-69
2021/09/02 01:23:38;;;;;;;19.30;11.18;;;14.90;99.90;;;;;;5078998;28;20013;-69
2021/09/02 01:26:16;;;;;;;21.15;13.35;;;14.80;99.90;;;;;;5078618;28;20024;-70
2021/09/02 01:28:42;;;;;;;15.15;10.48;;;14.90;99.90;;;;;;5078569;28;20060;-69
2021/09/02 01:31:10;;;;;;;13.65;9.77;;;14.40;99.90;;;;;;5078543;28;20052;-69
2021/09/02 01:33:35;;;;;;;16.85;10.10;;;14.90;99.90;;;;;;5078524;28;20500;-70
2021/09/02 01:36:01;;;;;;;21.08;11.90;;;14.80;99.90;;;;;;5078265;28;20048;-69
2021/09/02 01:38:27;;;;;;;15.15;10.70;;;15.00;99.90;;;;;;5077099;28;20832;-69
2021/09/02 01:40:53;;;;;;;19.60;12.68;;;14.60;99.90;;;;;;5078538;28;20028;-69
2021/09/02 01:43:19;;;;;;;14.45;11.07;;;14.80;99.90;;;;;;5078465;28;20013;-69
2021/09/02 01:45:45;;;;;;;12.52;10.25;;;14.80;99.90;;;;;;5078967;28;20511;-69
2021/09/02 01:48:11;;;;;;;18.02;11.70;;;14.40;99.90;;;;;;5078628;28;20035;-70
2021/09/02 01:50:40;;;;;;;16.90;11.95;;;14.90;99.90;;;;;;5078033;28;20078;-70
2021/09/02 01:53:09;;;;;;;18.60;11.70;;;14.70;99.90;;;;;;5077041;28;20032;-69
2021/09/02 01:55:35;;;;;;;19.63;11.27;;;14.60;99.90;;;;;;5078125;28;20024;-70
2021/09/02 01:58:01;;;;;;;16.13;10.75;;;15.00;99.90;;;;;;5078029;28;20098;-70
2021/09/02 02:00:27;;;;;;;19.27;10.85;;;14.60;99.90;;;;;;5078009;28;20036;-69
2021/09/02 02:02:53;;;;;;;19.48;11.77;;;14.50;99.90;;;;;;5078262;28;20021;-69
2021/09/02 02:05:19;;;;;;;18.75;10.77;;;14.50;99.90;;;;;;5076787;28;20078;-69
2021/09/02 02:07:45;;;;;;;18.20;10.82;;;14.50;99.90;;;;;;5078442;28;20056;-69
2021/09/02 02:10:17;;;;;;;17.25;11.70;;;14.60;99.90;;;;;;5077788;28;20059;-70
2021/09/02 02:12:44;;;;;;;19.88;11.35;;;14.40;99.90;;;;;;5077605;28;20024;-69
2021/09/02 02:15:11;;;;;;;21.88;10.45;;;14.80;99.90;;;;;;5077744;28;20037;-69
2021/09/02 02:17:39;;;;;;;15.65;10.05;;;14.60;99.90;;;;;;5076531;28;20029;-69
2021/09/02 02:20:07;;;;;;;17.70;11.80;;;14.40;99.90;;;;;;5077909;28;20024;-69
2021/09/02 02:22:32;;;;;;;19.40;10.93;;;15.30;99.90;;;;;;5078016;28;20021;-69
2021/09/02 02:24:58;;;;;;;17.48;11.90;;;14.30;99.90;;;;;;5077545;28;20029;-69
2021/09/02 02:27:24;;;;;;;17.75;10.88;;;14.70;99.90;;;;;;5075972;28;20027;-69
2021/09/02 02:29:50;;;;;;;16.88;11.07;;;14.40;99.90;;;;;;5077520;28;20035;-69
2021/09/02 02:32:16;;;;;;;18.00;12.13;;;14.80;99.90;;;;;;5077639;28;20036;-69
2021/09/02 02:34:42;;;;;;;13.27;9.88;;;14.20;99.90;;;;;;5075801;28;20179;-68
2021/09/02 02:37:08;;;;;;;15.30;10.73;;;14.60;99.90;;;;;;5077481;28;20404;-69
2021/09/02 02:39:38;;;;;;;18.20;12.07;;;14.30;99.90;;;;;;5077170;28;20454;-68
2021/09/02 02:42:06;;;;;;;18.23;10.45;;;14.00;99.90;;;;;;5077026;28;20021;-68
2021/09/02 02:44:32;;;;;;;16.15;12.35;;;14.10;99.90;;;;;;5075891;28;20404;-68
2021/09/02 02:46:58;;;;;;;16.05;11.13;;;14.30;99.90;;;;;;5077286;28;20027;-68
2021/09/02 02:49:23;;;;;;;14.23;10.35;;;14.50;99.90;;;;;;5077409;28;20422;-68
2021/09/02 02:51:49;;;;;;;19.05;11.52;;;14.60;99.90;;;;;;5077346;28;20037;-68
2021/09/02 02:54:15;;;;;;;17.77;10.88;;;14.50;99.90;;;;;;5077119;28;20024;-68
2021/09/02 02:56:41;;;;;;;12.82;10.98;;;14.20;99.90;;;;;;5077037;28;20016;-68
2021/09/02 02:59:07;;;;;;;17.42;10.30;;;14.10;99.90;;;;;;5076678;28;20388;-68
2021/09/02 03:01:33;;;;;;;13.00;10.30;;;14.60;99.90;;;;;;5076328;28;20020;-68
2021/09/02 03:03:58;;;;;;;16.98;10.82;;;14.40;99.90;;;;;;5077220;28;20052;-68
2021/09/02 03:06:24;;;;;;;15.80;11.00;;;14.10;99.90;;;;;;5076955;28;20811;-69
2021/09/02 03:08:50;;;;;;;12.90;9.27;;;13.80;99.90;;;;;;5076731;28;20396;-68
2021/09/02 03:11:16;;;;;;;13.00;9.57;;;13.60;99.90;;;;;;5077014;28;20035;-68
2021/09/02 03:13:42;;;;;;;16.67;11.27;;;13.60;99.90;;;;;;5076650;28;20060;-68
2021/09/02 03:16:08;;;;;;;13.30;11.05;;;14.30;99.90;;;;;;5076737;28;20028;-68
2021/09/02 03:18:34;;;;;;;17.40;10.50;;;13.70;99.90;;;;;;5076970;28;20020;-68
2021/09/02 03:20:59;;;;;;;15.75;10.02;;;13.60;99.90;;;;;;5076772;28;20057;-68
2021/09/02 03:23:25;;;;;;;18.40;11.77;;;14.10;99.90;;;;;;5075386;28;20027;-68
2021/09/02 03:25:51;;;;;;;12.38;9.90;;;14.00;99.90;;;;;;5076698;28;20392;-68
2021/09/02 03:28:17;;;;;;;15.00;11.00;;;13.90;99.90;;;;;;5075301;28;20033;-68
2021/09/02 03:30:43;;;;;;;16.83;12.25;;;14.10;99.90;;;;;;5076707;28;20031;-68
2021/09/02 03:33:09;;;;;;;21.05;11.63;;;14.10;99.90;;;;;;5076520;28;20485;-68
2021/09/02 03:35:35;;;;;;;18.45;11.60;;;13.60;99.90;;;;;;5076292;28;20041;-68
2021/09/02 03:38:00;;;;;;;17.35;9.95;;;13.90;99.90;;;;;;5076392;28;20024;-68
2021/09/02 03:40:26;;;;;;;18.02;12.50;;;14.10;99.90;;;;;;5076481;28;20024;-68
2021/09/02 03:42:52;;;;;;;11.95;9.82;;;13.90;99.90;;;;;;5076230;28;20025;-68
2021/09/02 03:45:18;;;;;;;14.48;10.18;;;13.90;99.90;;;;;;5076641;28;20024;-68
2021/09/02 03:47:48;;;;;;;15.50;9.90;;;13.90;99.90;;;;;;5075007;28;20047;-68
2021/09/02 03:50:15;;;;;;;16.35;11.18;;;13.40;99.90;;;;;;5076349;28;20025;-68
2021/09/02 03:52:41;;;;;;;17.50;11.77;;;13.70;99.90;;;;;;5076522;28;20096;-69
2021/09/02 03:55:07;;;;;;;21.58;11.98;;;14.10;99.90;;;;;;5076200;28;20092;-69
2021/09/02 03:57:33;;;;;;;13.93;10.63;;;13.70;99.90;;;;;;5076162;28;20021;-68
2021/09/02 03:59:59;;;;;;;16.85;11.73;;;13.70;99.90;;;;;;5076325;28;20079;-68
2021/09/02 04:02:24;;;;;;;18.40;11.38;;;13.00;99.90;;;;;;5076370;28;20025;-68
2021/09/02 04:04:50;;;;;;;19.00;12.13;;;13.40;99.90;;;;;;5076251;28;20077;-68
2021/09/02 04:07:16;;;;;;;15.45;11.02;;;13.70;99.90;;;;;;5076660;28;20036;-68
2021/09/02 04:09:42;;;;;;;18.80;12.18;;;13.50;99.90;;;;;;5076176;28;20049;-68
2021/09/02 04:12:08;;;;;;;15.07;10.93;;;13.70;99.90;;;;;;5076993;28;20024;-68
2021/09/02 04:14:34;;;;;;;16.98;11.27;;;13.60;99.90;;;;;;5080180;28;20115;-68
2021/09/02 04:17:00;;;;;;;12.73;10.02;;;13.50;99.90;;;;;;5080021;28;20037;-68
2021/09/02 04:19:26;;;;;;;17.88;12.35;;;13.50;99.90;;;;;;5078829;28;20025;-68
2021/09/02 04:21:51;;;;;;;17.40;11.75;;;12.80;99.90;;;;;;5079901;28;20028;-68
2021/09/02 04:24:17;;;;;;;17.30;12.20;;;13.20;99.90;;;;;;5080135;28;20024;-68
2021/09/02 04:26:44;;;;;;;18.88;11.98;;;13.80;99.90;;;;;;5079860;28;20028;-68
2021/09/02 04:29:10;;;;;;;21.23;13.55;;;12.90;99.90;;;;;;5079553;28;20112;-69
2021/09/02 04:31:36;;;;;;;22.02;13.05;;;14.20;99.90;;;;;;5079874;28;20103;-68
2021/09/02 04:34:02;;;;;;;16.38;11.98;;;13.90;99.90;;;;;;5079553;28;20499;-68
2021/09/02 04:36:28;;;;;;;14.98;11.80;;;13.00;99.90;;;;;;5079890;28;20068;-68
2021/09/02 04:38:54;;;;;;;19.15;12.20;;;13.20;99.90;;;;;;5079510;28;20044;-69
2021/09/02 04:41:20;;;;;;;19.00;11.60;;;13.00;99.90;;;;;;5078380;28;20558;-68
2021/09/02 04:43:45;;;;;;;16.65;11.98;;;13.30;99.90;;;;;;5079528;28;20021;-68
2021/09/02 04:46:11;;;;;;;22.20;11.85;;;13.60;99.90;;;;;;5079720;28;20103;-68
2021/09/02 04:48:37;;;;;;;22.38;12.82;;;13.60;99.90;;;;;;5079471;28;20384;-68
2021/09/02 04:51:03;;;;;;;20.63;14.02;;;13.10;99.90;;;;;;5079635;28;20082;-69
2021/09/02 04:53:30;;;;;;;22.52;13.07;;;12.80;99.90;;;;;;5079198;28;20564;-68
2021/09/02 04:55:56;;;;;;;21.05;12.50;;;13.30;99.90;;;;;;5079458;28;20388;-69
2021/09/02 04:58:21;;;;;;;20.30;12.38;;;13.50;99.90;;;;;;5079094;28;20102;-68
2021/09/02 05:00:47;;;;;;;17.10;12.60;;;13.70;99.90;;;;;;5079569;28;20460;-68
2021/09/02 05:03:13;;;;;;;22.77;13.73;;;13.10;99.90;;;;;;5079174;28;20107;-68
2021/09/02 05:05:39;;;;;;;20.83;12.63;;;12.70;99.90;;;;;;5077955;28;20124;-68
2021/09/02 05:08:05;;;;;;;26.45;14.27;;;13.30;99.90;;;;;;5077797;28;20032;-68
2021/09/02 05:10:33;;;;;;;19.58;14.07;;;12.60;99.90;;;;;;5079274;28;20028;-68
2021/09/02 05:12:59;;;;;;;20.88;13.95;;;13.50;99.90;;;;;;5078629;28;20020;-69
2021/09/02 05:15:25;;;;;;;21.98;13.18;;;13.40;99.90;;;;;;5079220;28;20047;-68
2021/09/02 05:17:51;;;;;;;17.85;12.45;;;14.00;99.90;;;;;;5077623;28;20021;-69
2021/09/02 05:20:17;;;;;;;20.13;14.55;;;12.60;99.90;;;;;;5077822;28;20466;-68
2021/09/02 05:22:44;;;;;;;22.90;13.68;;;12.80;99.90;;;;;;5078976;28;20081;-69
2021/09/02 05:25:10;;;;;;;20.90;12.80;;;13.20;99.90;;;;;;5078286;28;20115;-68
2021/09/02 05:27:37;;;;;;;20.00;13.68;;;13.30;99.90;;;;;;5078394;28;20024;-69
2021/09/02 05:30:06;;;;;;;23.42;14.48;;;13.50;99.90;;;;;;5078982;28;20082;-68
2021/09/02 05:32:32;;;;;;;19.52;12.60;;;13.60;99.90;;;;;;5078496;28;20032;-69
2021/09/02 05:34:58;;;;;;;22.33;13.60;;;12.80;99.90;;;;;;5078501;28;20048;-68
2021/09/02 05:37:24;;;;;;;24.98;13.85;;;13.40;99.90;;;;;;5078553;28;20025;-69
2021/09/02 05:39:50;;;;;;;22.05;15.05;;;13.20;99.90;;;;;;5077189;28;20031;-69
2021/09/02 05:42:16;;;;;;;27.02;14.90;;;12.80;99.90;;;;;;5078345;28;20104;-68
2021/09/02 05:44:42;;;;;;;27.73;14.68;;;13.20;99.90;;;;;;5078699;28;20021;-68
2021/09/02 05:47:07;;;;;;;17.45;12.45;;;12.90;99.90;;;;;;5078429;28;20024;-68
2021/09/02 05:49:33;;;;;;;26.85;15.70;;;12.90;99.90;;;;;;5078513;28;20090;-69
2021/09/02 05:51:59;;;;;;;22.27;15.73;;;12.90;99.90;;;;;;5078309;28;20048;-69
2021/09/02 05:54:25;;;;;;;20.33;14.43;;;12.70;99.90;;;;;;5078386;28;20078;-68
2021/09/02 05:56:51;;;;;;;25.02;15.52;;;13.80;99.90;;;;;;5077785;28;20031;-69
2021/09/02 05:59:17;;;;;;;19.50;13.75;;;12.80;99.90;;;;;;5078547;28;20488;-68
2021/09/02 06:01:43;;;;;;;20.13;13.30;;;13.30;99.90;;;;;;5078013;28;20017;-68
2021/09/02 06:04:09;;;;;;;21.45;13.90;;;13.70;99.90;;;;;;5078290;28;20473;-68
2021/09/02 06:06:35;;;;;;;22.58;13.93;;;13.20;99.90;;;;;;5077979;28;20039;-69
2021/09/02 06:09:02;;;;;;;24.10;14.18;;;13.50;99.90;;;;;;5078072;28;20032;-69
2021/09/02 06:11:28;;;;;;;19.45;13.00;;;13.20;99.90;;;;;;5077850;28;20025;-69
2021/09/02 06:13:53;;;;;;;24.35;14.93;;;13.70;99.90;;;;;;5077619;28;20035;-69
2021/09/02 06:16:19;;;;;;;23.75;14.10;;;13.50;99.90;;;;;;5077823;28;20056;-68
2021/09/02 06:18:45;;;;;;;28.33;13.93;;;14.60;99.90;;;;;;5078088;28;20393;-68
2021/09/02 06:21:11;;;;;;;19.80;14.10;;;13.70;99.90;;;;;;5076327;28;20013;-68
2021/09/02 06:23:37;;;;;;;17.38;13.80;;;14.90;99.90;;;;;;5077715;28;20424;-69
2021/09/02 06:26:03;;;;;;;20.60;13.15;;;14.00;99.90;;;;;;5077622;28;20021;-68
2021/09/02 06:28:28;;;;;;;19.60;13.38;;;13.90;99.90;;;;;;5077365;28;20073;-68
2021/09/02 06:30:54;;;;;;;17.40;12.27;;;14.50;99.90;;;;;;5077475;28;20027;-68
2021/09/02 06:33:20;;;;;;;22.02;14.63;;;14.40;99.90;;;;;;5077474;28;20568;-68
2021/09/02 06:35:46;;;;;;;19.50;13.48;;;15.00;99.90;;;;;;5075105;28;20068;-69
2021/09/02 06:38:12;;;;;;;18.85;12.50;;;15.10;99.90;;;;;;5077426;28;20020;-69
2021/09/02 06:40:38;;;;;;;18.98;12.45;;;13.90;99.90;;;;;;5077395;28;20020;-69
2021/09/02 06:43:04;;;;;;;22.20;13.20;;;14.90;99.90;;;;;;5077192;28;20028;-68
2021/09/02 06:45:29;;;;;;;21.85;12.45;;;14.90;99.90;;;;;;5077280;28;20480;-69
2021/09/02 06:47:55;;;;;;;19.55;12.50;;;14.70;99.90;;;;;;5077480;28;20055;-68
2021/09/02 06:50:21;;;;;;;17.80;11.60;;;15.40;99.90;;;;;;5077113;28;20028;-69
2021/09/02 06:52:47;;;;;;;19.27;12.65;;;15.10;99.90;;;;;;5076015;28;20024;-68
2021/09/02 06:55:13;;;;;;;18.67;11.82;;;15.00;99.90;;;;;;5076900;28;20032;-69
2021/09/02 06:57:39;;;;;;;22.15;13.10;;;15.70;99.90;;;;;;5076946;28;20028;-68
2021/09/02 07:00:07;;;;;;;17.73;12.00;;;16.10;99.90;;;;;;5077029;28;20561;-68
2021/09/02 07:02:36;;;;;;;18.67;13.40;;;16.10;99.90;;;;;;5077111;28;20020;-68
2021/09/02 07:05:04;;;;;;;15.73;11.88;;;16.00;99.90;;;;;;5076876;28;20017;-68
2021/09/02 07:07:29;;;;;;;14.68;11.45;;;16.30;99.90;;;;;;5077121;28;20017;-68
2021/09/02 07:09:56;;;;;;;18.13;11.63;;;16.70;99.90;;;;;;5075435;28;20542;-68
2021/09/02 07:12:22;;;;;;;18.88;11.95;;;16.50;99.90;;;;;;5076646;28;20082;-68
2021/09/02 07:14:48;;;;;;;17.15;10.93;;;16.70;99.90;;;;;;5076756;28;20012;-69
2021/09/02 07:17:15;;;;;;;18.15;11.18;;;16.70;99.90;;;;;;5077351;28;20479;-69
2021/09/02 07:19:40;;;;;;;20.63;11.80;;;16.80;99.90;;;;;;5076658;28;20027;-69
2021/09/02 07:22:06;;;;;;;16.85;11.30;;;17.10;99.90;;;;;;5076911;28;20025;-69
2021/09/02 07:24:32;;;;;;;23.98;12.02;;;17.00;99.90;;;;;;5076531;28;20021;-69
2021/09/02 07:26:58;;;;;;;18.73;11.48;;;17.00;99.90;;;;;;5076422;28;20108;-68
2021/09/02 07:29:24;;;;;;;17.40;11.55;;;17.10;99.90;;;;;;5076550;28;20031;-69
2021/09/02 07:31:50;;;;;;;17.27;11.73;;;17.10;99.90;;;;;;5076650;28;20020;-68
2021/09/02 07:34:16;;;;;;;22.35;11.38;;;17.20;99.90;;;;;;5076529;28;20127;-69
2021/09/02 07:36:43;;;;;;;13.95;9.02;;;17.40;99.90;;;;;;5075245;28;20119;-69
2021/09/02 07:39:10;;;;;;;19.38;11.98;;;17.60;99.90;;;;;;5076413;28;20024;-69
2021/09/02 07:41:36;;;;;;;18.00;13.00;;;17.90;99.90;;;;;;5076574;28;20021;-69
2021/09/02 07:44:02;;;;;;;15.50;11.10;;;18.00;99.90;;;;;;5076172;28;20031;-69
2021/09/02 07:46:27;;;;;;;14.02;9.98;;;17.70;99.90;;;;;;5076429;28;20036;-69
2021/09/02 07:48:53;;;;;;;14.80;9.95;;;18.00;99.90;;;;;;5076329;28;20021;-69
2021/09/02 07:51:20;;;;;;;12.68;9.77;;;18.10;99.90;;;;;;5076456;28;20024;-68
2021/09/02 07:53:47;;;;;;;15.05;9.55;;;18.30;99.90;;;;;;5076532;28;20032;-68
2021/09/02 07:56:13;;;;;;;12.60;8.30;;;18.40;99.90;;;;;;5076446;28;20033;-69
2021/09/02 07:58:41;;;;;;;17.52;10.73;;;18.40;99.90;;;;;;5076023;28;20029;-69
2021/09/02 08:01:10;;;;;;;15.70;11.27;;;18.80;99.90;;;;;;5075068;28;20029;-69
2021/09/02 08:03:37;;;;;;;18.55;10.05;;;18.90;99.90;;;;;;5076155;28;20095;-68
2021/09/02 08:06:03;;;;;;;15.57;10.10;;;18.80;99.90;;;;;;5076405;28;20027;-69
2021/09/02 08:08:29;;;;;;;20.95;10.50;;;19.00;99.90;;;;;;5076072;28;20107;-68
2021/09/02 08:10:55;;;;;;;14.38;9.77;;;19.20;99.90;;;;;;5076338;28;20052;-68
2021/09/02 08:13:21;;;;;;;19.77;9.80;;;19.70;99.90;;;;;;5075752;28;20031;-68
2021/09/02 08:15:47;;;;;;;10.82;8.75;;;19.80;99.90;;;;;;5076360;28;20025;-69
2021/09/02 08:18:13;;;;;;;12.20;9.18;;;20.10;99.90;;;;;;5076141;28;20017;-68
2021/09/02 08:20:40;;;;;;;13.82;8.18;;;20.20;99.90;;;;;;5076257;28;20082;-68
2021/09/02 08:23:06;;;;;;;14.75;8.45;;;20.40;99.90;;;;;;5076146;28;20104;-68
2021/09/02 08:25:32;;;;;;;15.52;9.98;;;20.80;99.90;;;;;;5076091;28;20024;-68
2021/09/02 08:27:58;;;;;;;10.93;8.07;;;20.90;99.90;;;;;;5075632;28;20099;-68
2021/09/02 08:30:26;;;;;;;11.15;8.80;;;21.10;99.90;;;;;;5076162;28;20051;-68
2021/09/02 08:32:52;;;;;;;16.38;9.10;;;21.30;99.90;;;;;;5075829;28;20032;-68
2021/09/02 08:35:24;;;;;;;20.77;8.32;;;21.90;99.90;;;;;;5075996;28;20039;-68
2021/09/02 08:37:52;;;;;;;10.38;6.97;;;21.90;99.90;;;;;;5075864;28;20074;-68
2021/09/02 08:40:21;;;;;;;8.57;6.15;;;22.50;99.90;;;;;;5076076;28;20488;-68
2021/09/02 08:42:47;;;;;;;11.50;8.57;;;23.60;99.90;;;;;;5075675;28;20036;-68
2021/09/02 08:45:14;;;;;;;11.02;8.07;;;23.70;99.90;;;;;;5074680;28;20027;-68
2021/09/02 08:47:44;;;;;;;9.75;7.13;;;;;;;;;;5075805;28;20097;-68
2021/09/02 08:50:12;;;;;;;10.02;7.07;;;;;;;;;;5075991;28;20029;-68
2021/09/02 08:52:39;;;;;;;11.38;7.30;;;;;;;;;;5075837;28;20024;-68
2021/09/02 08:55:05;;;;;;;12.00;8.65;;;;;;;;;;5075833;28;20118;-68
2021/09/02 08:57:31;;;;;;;8.70;5.75;;;24.60;99.90;;;;;;5075588;28;20021;-68
2021/09/02 08:59:58;;;;;;;8.32;6.13;;;24.90;99.90;;;;;;5077993;28;20020;-68
2021/09/02 09:02:29;;;;;;;9.27;6.47;;;25.30;99.90;;;;;;5079252;28;20032;-68
2021/09/02 09:05:02;;;;;;;11.10;6.38;;;25.50;99.00;;;;;;5079281;28;20052;-69
2021/09/02 09:07:36;;;;;;;11.35;7.18;;;25.70;99.90;;;;;;5079316;28;20086;-68
2021/09/02 09:10:10;;;;;;;10.10;6.32;;;25.80;99.90;;;;;;5079044;28;20076;-68
2021/09/02 09:12:45;;;;;;;9.50;7.57;;;25.90;97.70;;;;;;5078853;28;20473;-68
2021/09/02 09:15:20;;;;;;;10.45;7.28;;;25.80;97.10;;;;;;5078848;28;20433;-68
2021/09/02 09:17:47;;;;;;;7.45;5.63;;;25.80;96.70;;;;;;5079408;28;20031;-68
2021/09/02 09:20:17;;;;;;;10.02;6.40;;;26.00;97.60;;;;;;5079298;28;20362;-68
2021/09/02 09:22:47;;;;;;;11.30;6.72;;;26.00;96.10;;;;;;5078954;28;20035;-69
2021/09/02 09:25:13;;;;;;;7.90;6.15;;;26.00;96.30;;;;;;5077776;28;20047;-68
2021/09/02 09:27:43;;;;;;;10.98;6.03;;;26.10;95.80;;;;;;5078450;28;20020;-68
2021/09/02 09:30:12;;;;;;;8.77;5.85;;;;;;;;;;5077508;28;20571;-68
2021/09/02 09:32:52;;;;;;;8.45;5.95;;;27.00;99.80;;;;;;5077218;28;20032;-68
2021/09/02 09:35:24;;;;;;;7.30;5.45;;;26.90;94.60;;;;;;5078686;28;20040;-68
2021/09/02 09:38:06;;;;;;;10.65;6.47;;;27.10;94.70;;;;;;5078633;28;20485;-68
2021/09/02 09:40:33;;;;;;;7.38;5.72;;;27.40;93.20;;;;;;5078557;28;20023;-68
2021/09/02 09:43:08;;;;;;;8.15;6.20;;;27.70;93.40;;;;;;5078296;28;20361;-68
2021/09/02 09:45:40;;;;;;;8.52;5.45;;;27.90;92.40;;;;;;5078470;28;20029;-68
2021/09/02 09:48:32;;;;;;;6.50;4.35;;;28.60;92.00;;;;;;5077466;28;20032;-68
2021/09/02 09:51:13;;;;;;;6.15;5.15;;;28.80;91.70;;;;;;5078294;28;20056;-69
2021/09/02 09:53:42;;;;;;;6.65;4.82;;;29.20;90.40;;;;;;5078171;28;20043;-68
2021/09/02 09:56:09;;;;;;;11.63;6.10;;;29.30;94.20;;;;;;5078364;28;20358;-68
2021/09/02 09:58:36;;;;;;;7.53;5.43;;;29.20;91.90;;;;;;5077940;28;20024;-69
2021/09/02 10:01:04;;;;;;;5.38;3.58;;;29.20;92.20;;;;;;5078409;28;20108;-68
2021/09/02 10:03:31;;;;;;;6.82;5.47;;;29.50;92.40;;;;;;5078037;28;20078;-68
2021/09/02 10:06:02;;;;;;;7.78;5.40;;;;;;;;;;5078187;28;20036;-68
2021/09/02 10:08:33;;;;;;;11.30;5.85;;;29.90;87.50;;;;;;5077978;28;20083;-69
2021/09/02 10:11:00;;;;;;;6.78;4.30;;;29.70;86.30;;;;;;5078018;28;20381;-68
2021/09/02 10:13:26;;;;;;;9.98;4.63;;;30.00;87.70;;;;;;5077475;28;20386;-68
2021/09/02 10:15:53;;;;;;;5.70;4.50;;;30.40;86.60;;;;;;5077920;28;20416;-68
2021/09/02 10:18:19;;;;;;;9.93;5.07;;;30.50;85.40;;;;;;5077867;28;20023;-69
2021/09/02 10:20:45;;;;;;;5.53;3.75;;;30.60;85.00;;;;;;5078104;28;20489;-68
2021/09/02 10:23:12;;;;;;;6.65;4.03;;;30.90;85.20;;;;;;5077626;28;20455;-68
2021/09/02 10:25:39;;;;;;;7.85;4.65;;;31.20;85.50;;;;;;5077929;28;20036;-68
2021/09/02 10:28:12;;;;;;;6.15;4.40;;;31.60;84.10;;;;;;5077169;28;20025;-69
2021/09/02 10:30:49;;;;;;;5.60;4.00;;;31.80;81.40;;;;;;5077693;28;20050;-69
2021/09/02 10:33:44;;;;;;;9.00;5.13;;;31.90;80.80;;;;;;5077599;28;20032;-68
2021/09/02 10:36:10;;;;;;;5.97;4.30;;;31.50;80.30;;;;;;5047122;28;20082;-69
2021/09/02 10:38:49;;;;;;;5.55;4.15;;;31.30;79.70;;;;;;5077317;28;20025;-69
2021/09/02 10:41:41;;;;;;;6.60;4.18;;;31.10;79.90;;;;;;5077593;28;20020;-69
2021/09/02 10:44:18;;;;;;;10.15;5.35;;;31.20;81.10;;;;;;5077149;28;20464;-69
2021/09/02 10:46:52;;;;;;;7.53;4.45;;;31.60;79.30;;;;;;5077773;28;20028;-68
2021/09/02 10:49:35;;;;;;;9.52;4.75;;;31.80;77.60;;;;;;5077266;28;20078;-69
2021/09/02 10:52:23;;;;;;;11.40;4.55;;;31.70;78.90;;;;;;5075773;28;20033;-68
2021/09/02 10:54:49;;;;;;;4.80;3.80;;;32.00;79.10;;;;;;5055782;28;20029;-69
2021/09/02 10:57:15;;;;;;;5.30;3.75;;;32.30;77.40;;;;;;5074737;28;20031;-68
2021/09/02 10:59:49;;;;;;;6.28;3.80;;;32.80;84.20;;;;;;5077116;28;20104;-69
2021/09/02 11:02:17;;;;;;;4.83;3.63;;;32.90;75.50;;;;;;5077051;28;20392;-69
2021/09/02 11:04:45;;;;;;;4.22;3.67;;;32.30;75.10;;;;;;5077245;28;20019;-68
2021/09/02 11:07:11;;;;;;;5.22;3.55;;;32.50;76.30;;;;;;5076839;28;20024;-68
2021/09/02 11:09:39;;;;;;;8.13;4.38;;;32.70;76.30;;;;;;5075555;28;20028;-69
2021/09/02 11:12:11;;;;;;;5.78;3.38;;;32.60;74.90;;;;;;5076448;28;20029;-69
2021/09/02 11:14:47;;;;;;;4.95;3.85;;;32.50;75.00;;;;;;5076815;28;20561;-69
2021/09/02 11:17:14;;;;;;;5.72;3.88;;;32.10;75.00;;;;;;5077347;28;20081;-68
2021/09/02 11:19:42;;;;;;;6.80;3.90;;;31.60;75.10;;;;;;5076821;28;20476;-69
2021/09/02 11:22:07;;;;;;;6.10;3.05;;;31.90;76.00;;;;;;5076367;28;20021;-68
2021/09/02 11:24:49;;;;;;;5.88;3.17;;;32.40;76.20;;;;;;5076643;28;20028;-69
2021/09/02 11:27:35;;;;;;;3.92;3.08;;;32.60;74.40;;;;;;5076481;28;20025;-69
2021/09/02 11:30:25;;;;;;;4.95;3.63;;;32.90;73.70;;;;;;5064175;28;20487;-69
2021/09/02 11:32:54;;;;;;;4.75;3.33;;;33.00;73.20;;;;;;5076435;28;20032;-69
2021/09/02 11:35:21;;;;;;;6.80;5.20;;;33.20;73.30;;;;;;5076280;28;20052;-69
2021/09/02 11:37:47;;;;;;;5.68;3.28;;;33.60;73.70;;;;;;5076608;28;20032;-69
2021/09/02 11:40:35;;;;;;;7.68;3.35;;;34.20;73.40;;;;;;5076680;28;20032;-69
2021/09/02 11:43:03;;;;;;;5.00;2.83;;;34.40;68.50;;;;;;5076457;28;20035;-69
2021/09/02 11:45:32;;;;;;;4.03;3.00;;;34.30;70.90;;;;;;5076487;28;20017;-69
2021/09/02 11:48:05;;;;;;;4.07;2.83;;;34.20;69.80;;;;;;5076611;28;20016;-69
2021/09/02 11:50:32;;;;;;;4.68;3.50;;;34.10;69.40;;;;;;5076481;28;20025;-69
2021/09/02 11:52:58;;;;;;;4.47;3.60;;;34.30;70.60;;;;;;5076476;28;20029;-69
2021/09/02 11:55:31;;;;;;;8.07;3.20;;;34.70;69.70;;;;;;5076227;28;20479;-69
2021/09/02 11:58:02;;;;;;;4.00;3.03;;;34.90;70.10;;;;;;5076237;28;20385;-69
2021/09/02 12:00:30;;;;;;;4.65;3.10;;;34.50;67.50;;;;;;5076341;28;20040;-69
2021/09/02 12:02:57;;;;;;;4.75;2.63;;;34.40;68.10;;;;;;5076248;28;20489;-69
2021/09/02 12:05:36;;;;;;;3.00;2.55;;;34.70;69.10;;;;;;5076256;28;20025;-69
2021/09/02 12:08:03;;;;;;;4.18;2.67;;;34.30;67.90;;;;;;5076357;28;20029;-69
2021/09/02 12:10:29;;;;;;;3.08;2.65;;;34.10;67.60;;;;;;5076183;28;20078;-68
2021/09/02 12:12:55;;;;;;;6.50;3.38;;;34.00;66.90;;;;;;5076138;28;20028;-69
2021/09/02 12:15:24;;;;;;;4.95;3.38;;;34.00;68.10;;;;;;5076146;28;20020;-69
2021/09/02 12:18:07;;;;;;;4.40;2.70;;;34.10;68.10;;;;;;5076296;28;20067;-69
2021/09/02 12:20:34;;;;;;;2.85;1.90;;;34.20;67.50;;;;;;5076365;28;20389;-69
2021/09/02 12:23:24;;;;;;;6.80;3.55;;;34.60;68.60;;;;;;5076104;28;20485;-69
2021/09/02 12:25:57;;;;;;;3.22;2.85;;;35.00;65.60;;;;;;5076153;28;20024;-69
2021/09/02 12:28:31;;;;;;;3.97;2.97;;;35.00;66.90;;;;;;5063213;28;20052;-69
2021/09/02 12:30:58;;;;;;;3.95;2.72;;;35.10;66.80;;;;;;5075016;28;20032;-69
2021/09/02 12:33:23;;;;;;;4.00;2.45;;;35.20;67.50;;;;;;5075869;28;20457;-69
2021/09/02 12:35:49;;;;;;;4.90;3.38;;;35.40;67.20;;;;;;5079380;28;20082;-69
2021/09/02 12:38:34;;;;;;;4.22;3.53;;;35.30;65.90;;;;;;5079840;28;20029;-69